Time;durP1;ratioP1;P1;durP2;ratioP2;P2;SDS_P1;SDS_P2;PMS_P1;PMS_P2;Temp;Humidity;BMP_temperature;BMP_pressure;BME280_temperature;BME280_humidity;BME280_pressure;Samples;Min_cycle;Max_cycle;Signal;HPM_P1;HPM_P2
2023/05/07 00:02:03;;;;;;;;;21.00;20.75;;;;;9.57;100.00;98556.22;4909199;28;102443;-73
2023/05/07 00:04:38;;;;;;;;;22.25;21.25;;;;;9.54;100.00;98555.78;4905668;28;103716;-73
2023/05/07 00:07:22;;;;;;;;;19.50;16.25;;;;;9.53;100.00;98546.00;4902693;28;103614;-72
2023/05/07 00:10:18;;;;;;;;;20.50;19.25;;;;;9.50;100.00;98563.41;4903510;28;101933;-72
2023/05/07 00:13:03;;;;;;;;;16.75;15.75;;;;;9.55;100.00;98555.56;4909193;28;102499;-73
2023/05/07 00:15:51;;;;;;;;;23.50;20.50;;;;;9.49;100.00;98555.53;4901072;28;107618;-72
2023/05/07 00:18:25;;;;;;;;;29.75;24.75;;;;;9.45;100.00;98562.34;4897982;28;102461;-73
2023/05/07 00:20:52;;;;;;;;;23.50;19.00;;;;;9.41;100.00;98560.00;4908733;28;102240;-74
2023/05/07 00:23:19;;;;;;;;;26.75;21.50;;;;;9.38;100.00;98559.56;4900349;28;102530;-73
2023/05/07 00:25:46;;;;;;;;;28.25;26.25;;;;;9.22;100.00;98567.94;4905925;28;104039;-73
2023/05/07 00:28:13;;;;;;;;;28.00;25.00;;;;;9.17;100.00;98565.00;4888863;28;102036;-73
2023/05/07 00:30:40;;;;;;;;;18.75;18.75;;;;;9.01;100.00;98559.84;4898675;28;102551;-73
2023/05/07 00:33:07;;;;;;;;;24.00;21.50;;;;;9.04;100.00;98570.25;4907893;28;102219;-72
2023/05/07 00:35:34;;;;;;;;;26.75;25.00;;;;;9.04;100.00;98571.09;4906304;28;104629;-73
2023/05/07 00:38:01;;;;;;;;;23.25;19.75;;;;;9.00;100.00;98571.66;4893255;28;102364;-73
2023/05/07 00:40:29;;;;;;;;;28.25;22.25;;;;;8.87;100.00;98554.31;4877745;28;102537;-72
2023/05/07 00:42:57;;;;;;;;;20.00;18.25;;;;;8.90;100.00;98571.97;4905568;28;102547;-72
2023/05/07 00:45:28;;;;;;;;;25.00;19.25;;;;;8.80;100.00;98584.94;4908184;28;104032;-72
2023/05/07 00:47:57;;;;;;;;;20.25;16.50;;;;;8.78;100.00;98585.09;4902587;28;102355;-73
2023/05/07 00:50:26;;;;;;;;;27.00;20.75;;;;;8.72;100.00;98583.19;4902605;28;102113;-74
2023/05/07 00:52:53;;;;;;;;;23.25;22.00;;;;;8.41;100.00;98532.25;4908263;28;103438;-73
2023/05/07 00:55:22;;;;;;;;;23.75;23.25;;;;;8.61;100.00;98578.28;4907728;28;108688;-72
2023/05/07 00:57:50;;;;;;;;;23.00;19.00;;;;;8.54;100.00;98565.75;4889861;28;102429;-72
2023/05/07 01:00:18;;;;;;;;;18.25;16.75;;;;;8.63;100.00;98586.19;4861944;28;102049;-72
2023/05/07 01:02:46;;;;;;;;;20.50;19.25;;;;;8.42;100.00;98581.59;4900921;28;102749;-73
2023/05/07 01:05:24;;;;;;;;;25.75;21.00;;;;;8.30;100.00;98591.13;4901981;28;104100;-73
2023/05/07 01:08:18;;;;;;;;;23.75;18.75;;;;;8.23;100.00;98588.34;4898003;28;102006;-73
2023/05/07 01:11:12;;;;;;;;;21.00;19.50;;;;;8.18;100.00;98589.91;4898935;28;101971;-74
2023/05/07 01:13:58;;;;;;;;;19.00;17.00;;;;;8.07;100.00;98581.28;4904593;28;102285;-73
2023/05/07 01:16:44;;;;;;;;;18.75;15.75;;;;;8.23;100.00;98593.72;4900597;28;108038;-74
2023/05/07 01:19:19;;;;;;;;;29.25;22.50;;;;;8.17;100.00;98590.94;4901945;28;102113;-73
2023/05/07 01:21:48;;;;;;;;;19.25;18.75;;;;;8.16;100.00;98594.63;4901057;28;102067;-73
2023/05/07 01:24:15;;;;;;;;;22.75;18.75;;;;;8.12;100.00;98596.03;4902974;28;101999;-73
2023/05/07 01:26:44;;;;;;;;;27.00;22.00;;;;;8.13;100.00;98597.72;4908261;28;104026;-73
2023/05/07 01:29:11;;;;;;;;;12.50;10.25;;;;;7.94;100.00;98580.25;4899176;28;102626;-72
2023/05/07 01:31:41;;;;;;;;;18.25;15.50;;;;;8.11;100.00;98587.13;4901972;28;101944;-73
2023/05/07 01:34:10;;;;;;;;;14.25;13.50;;;;;7.97;100.00;98561.84;4904200;28;102333;-73
2023/05/07 01:36:39;;;;;;;;;10.00;7.25;;;;;8.10;100.00;98569.31;4907585;28;104032;-73
2023/05/07 01:39:08;;;;;;;;;17.00;14.00;;;;;8.14;100.00;98581.38;4906458;28;102353;-73
2023/05/07 01:41:35;;;;;;;;;22.50;19.25;;;;;8.10;100.00;98582.78;4901436;28;102368;-74
2023/05/07 01:44:04;;;;;;;;;15.50;13.75;;;;;8.22;100.00;98596.59;4903640;28;102456;-74
2023/05/07 01:46:32;;;;;;;;;17.50;16.00;;;;;8.19;100.00;98591.59;4907811;28;103906;-74
2023/05/07 01:48:59;;;;;;;;;18.50;17.75;;;;;8.19;100.00;98591.59;4912620;28;102756;-73
2023/05/07 01:51:27;;;;;;;;;15.00;13.00;;;;;8.22;100.00;98589.34;4899706;28;102224;-73
2023/05/07 01:53:54;;;;;;;;;12.50;11.00;;;;;8.27;100.00;98592.34;4903733;28;102374;-73
2023/05/07 01:56:21;;;;;;;;;13.50;12.50;;;;;8.27;100.00;98589.63;4904226;28;104003;-74
2023/05/07 01:58:50;;;;;;;;;14.50;12.25;;;;;8.19;100.00;98570.88;4883997;28;102275;-74
2023/05/07 02:01:18;;;;;;;;;16.00;14.00;;;;;8.29;100.00;98586.72;4895994;28;102017;-72
2023/05/07 02:03:45;;;;;;;;;16.75;14.25;;;;;8.29;100.00;98593.00;4892831;28;102109;-73
2023/05/07 02:06:12;;;;;;;;;15.00;13.25;;;;;8.31;100.00;98596.34;4902674;28;103866;-73
2023/05/07 02:08:39;;;;;;;;;14.75;10.50;;;;;8.34;100.00;98595.13;4909685;28;102468;-74
2023/05/07 02:11:06;;;;;;;;;14.00;14.00;;;;;8.33;100.00;98596.97;4902908;28;102498;-73
2023/05/07 02:13:36;;;;;;;;;17.50;14.00;;;;;8.25;100.00;98574.66;4900458;28;102535;-73
2023/05/07 02:16:04;;;;;;;;;16.25;14.25;;;;;8.30;100.00;98594.66;4887344;28;103967;-73
2023/05/07 02:18:31;;;;;;;;;13.25;11.50;;;;;8.34;100.00;98598.66;4908399;28;102282;-73
2023/05/07 02:20:58;;;;;;;;;11.75;10.50;;;;;8.37;100.00;98594.78;4911372;28;102353;-73
2023/05/07 02:23:25;;;;;;;;;10.00;9.00;;;;;8.39;100.00;98598.09;4901957;28;103214;-72
2023/05/07 02:25:52;;;;;;;;;8.00;8.00;;;;;8.30;100.00;98578.50;4903432;28;103647;-73
2023/05/07 02:28:19;;;;;;;;;10.75;10.25;;;;;8.41;100.00;98601.47;4901555;28;102342;-73
2023/05/07 02:30:46;;;;;;;;;15.50;15.50;;;;;8.33;100.00;98588.09;4909164;28;102498;-73
2023/05/07 02:33:13;;;;;;;;;8.00;7.00;;;;;8.33;100.00;98594.28;4901070;28;102392;-73
2023/05/07 02:35:41;;;;;;;;;14.75;9.75;;;;;8.31;100.00;98601.75;4904292;28;105672;-72
2023/05/07 02:38:10;;;;;;;;;11.75;11.75;;;;;8.32;100.00;98602.56;4905392;28;102372;-73
2023/05/07 02:40:40;;;;;;;;;18.50;17.75;;;;;8.21;100.00;98605.69;4895335;28;102366;-73
2023/05/07 02:43:08;;;;;;;;;15.00;15.00;;;;;8.21;100.00;98608.38;4901626;28;102182;-72
2023/05/07 02:45:37;;;;;;;;;21.75;18.75;;;;;8.15;100.00;98614.53;4899999;28;104470;-73
2023/05/07 02:48:05;;;;;;;;;22.50;21.75;;;;;7.97;100.00;98601.44;4889444;28;102002;-73
2023/05/07 02:50:32;;;;;;;;;17.25;15.00;;;;;7.95;100.00;98598.91;4905822;28;102255;-73
2023/05/07 02:52:59;;;;;;;;;18.25;17.00;;;;;8.00;100.00;98611.81;4907688;28;101987;-72
2023/05/07 02:55:26;;;;;;;;;15.75;14.75;;;;;8.05;100.00;98609.41;4902049;28;108720;-72
2023/05/07 02:57:53;;;;;;;;;14.75;13.50;;;;;8.02;100.00;98616.00;4892829;28;102456;-73
2023/05/07 03:00:20;;;;;;;;;11.00;10.50;;;;;7.95;100.00;98598.06;4906972;28;102298;-74
2023/05/07 03:02:47;;;;;;;;;18.50;14.00;;;;;8.02;100.00;98607.91;4907707;28;101991;-73
2023/05/07 03:05:15;;;;;;;;;13.75;13.75;;;;;8.07;100.00;98610.06;4898505;28;104436;-73
2023/05/07 03:07:45;;;;;;;;;15.75;14.50;;;;;7.99;100.00;98618.22;4907591;28;102475;-72
2023/05/07 03:10:12;;;;;;;;;11.50;11.00;;;;;8.05;100.00;98607.56;4912053;28;102339;-73
2023/05/07 03:12:39;;;;;;;;;8.00;5.50;;;;;8.11;100.00;98614.03;4910950;28;102404;-73
2023/05/07 03:15:07;;;;;;;;;7.75;7.75;;;;;8.12;100.00;98614.88;4902470;28;104057;-73
2023/05/07 03:17:34;;;;;;;;;8.75;8.00;;;;;8.05;100.00;98623.72;4879909;28;102336;-73
2023/05/07 03:20:01;;;;;;;;;5.50;5.50;;;;;8.10;100.00;98625.03;4894513;28;102083;-74
2023/05/07 03:22:28;;;;;;;;;12.00;10.00;;;;;8.01;100.00;98633.16;4901299;28;102161;-73
2023/05/07 03:24:55;;;;;;;;;9.50;9.50;;;;;8.01;100.00;98633.16;4904625;28;103810;-73
2023/05/07 03:27:22;;;;;;;;;11.75;10.00;;;;;7.93;100.00;98630.56;4901370;28;102348;-73
2023/05/07 03:29:49;;;;;;;;;10.00;9.00;;;;;7.93;100.00;98649.41;4906234;28;102476;-73
2023/05/07 03:32:16;;;;;;;;;9.25;8.00;;;;;8.01;100.00;98638.53;4911925;28;101949;-72
2023/05/07 03:34:42;;;;;;;;;6.00;4.25;;;;;8.06;100.00;98652.28;4904541;28;103641;-73
2023/05/07 03:37:09;;;;;;;;;8.25;8.25;;;;;7.98;100.00;98644.31;4906679;28;102879;-73
2023/05/07 03:39:36;;;;;;;;;7.75;7.25;;;;;7.84;100.00;98611.97;4906585;28;102401;-73
2023/05/07 03:42:03;;;;;;;;;7.00;5.00;;;;;8.06;100.00;98656.84;4909054;28;102502;-73
2023/05/07 03:44:30;;;;;;;;;12.25;10.00;;;;;7.88;100.00;98632.16;4911947;28;104325;-74
2023/05/07 03:46:57;;;;;;;;;8.50;8.00;;;;;7.98;100.00;98657.78;4905728;28;102350;-73
2023/05/07 03:49:24;;;;;;;;;11.00;9.75;;;;;7.93;100.00;98651.25;4905545;28;102247;-73
2023/05/07 03:51:51;;;;;;;;;8.25;8.25;;;;;7.89;100.00;98656.19;4908391;28;103752;-73
2023/05/07 03:54:18;;;;;;;;;10.25;10.25;;;;;7.88;100.00;98659.88;4910499;28;103927;-74
2023/05/07 03:56:45;;;;;;;;;9.00;8.00;;;;;7.91;100.00;98659.53;4902877;28;102608;-73
2023/05/07 03:59:13;;;;;;;;;8.50;8.00;;;;;7.91;100.00;98664.91;4905140;28;103281;-73
2023/05/07 04:01:40;;;;;;;;;8.25;6.00;;;;;7.91;100.00;98664.06;4909594;28;102325;-73
2023/05/07 04:04:07;;;;;;;;;10.75;9.75;;;;;7.82;100.00;98663.31;4906177;28;104130;-74
2023/05/07 04:06:34;;;;;;;;;12.25;11.00;;;;;7.65;100.00;98669.88;4905348;28;101960;-74
2023/05/07 04:09:01;;;;;;;;;10.50;9.00;;;;;7.72;100.00;98675.34;4895734;28;102404;-74
2023/05/07 04:11:28;;;;;;;;;9.75;9.25;;;;;7.71;100.00;98663.75;4907736;28;102101;-73
2023/05/07 04:13:55;;;;;;;;;12.25;10.75;;;;;7.68;100.00;98680.25;4908568;28;103982;-72
2023/05/07 04:16:22;;;;;;;;;12.00;11.75;;;;;7.59;100.00;98686.72;4908067;28;101989;-72
2023/05/07 04:18:49;;;;;;;;;15.00;12.25;;;;;7.48;100.00;98676.38;4883301;28;102115;-71
2023/05/07 04:21:17;;;;;;;;;10.00;9.25;;;;;7.58;100.00;98690.41;4906221;28;102045;-73
2023/05/07 04:23:45;;;;;;;;;9.00;8.50;;;;;7.57;100.00;98691.44;4910235;28;103991;-73
2023/05/07 04:26:12;;;;;;;;;13.75;12.00;;;;;7.53;100.00;98695.50;4908832;28;102039;-72
2023/05/07 04:28:40;;;;;;;;;8.00;7.00;;;;;7.65;100.00;98704.84;4902670;28;102320;-73
2023/05/07 04:31:07;;;;;;;;;6.50;5.00;;;;;7.67;100.00;98699.25;4904045;28;102121;-74
2023/05/07 04:33:34;;;;;;;;;11.00;9.50;;;;;7.60;100.00;98707.25;4906544;28;103958;-74
2023/05/07 04:36:03;;;;;;;;;10.00;9.00;;;;;7.62;100.00;98705.19;4909730;28;102202;-73
2023/05/07 04:38:33;;;;;;;;;4.75;2.50;;;;;7.67;100.00;98713.56;4906764;28;102517;-72
2023/05/07 04:41:05;;;;;;;;;5.50;5.00;;;;;7.58;100.00;98717.34;4903529;28;105131;-72
2023/05/07 04:43:32;;;;;;;;;8.00;8.00;;;;;7.58;100.00;98722.72;4902211;28;108694;-74
2023/05/07 04:45:59;;;;;;;;;7.50;7.50;;;;;7.54;100.00;98727.63;4912277;28;102489;-73
2023/05/07 04:48:27;;;;;;;;;7.00;4.25;;;;;7.49;100.00;98726.47;4884667;28;102014;-73
2023/05/07 04:50:54;;;;;;;;;9.75;9.00;;;;;7.14;100.00;98687.53;4904187;28;103153;-73
2023/05/07 04:53:21;;;;;;;;;6.75;6.75;;;;;7.44;100.00;98736.94;4904927;28;103984;-73
2023/05/07 04:55:48;;;;;;;;;7.00;5.00;;;;;7.25;100.00;98697.88;4910115;28;101900;-73
2023/05/07 04:58:15;;;;;;;;;15.00;8.00;;;;;7.33;100.00;98729.28;4898486;28;102370;-72
2023/05/07 05:00:43;;;;;;;;;5.00;5.00;;;;;7.42;100.00;98734.44;4902416;28;102233;-73
2023/05/07 05:03:10;;;;;;;;;9.00;5.00;;;;;7.45;100.00;98749.38;4901404;28;104003;-72
2023/05/07 05:05:38;;;;;;;;;6.50;6.00;;;;;7.52;100.00;98759.22;4906023;28;102482;-72
2023/05/07 05:08:05;;;;;;;;;7.00;5.25;;;;;7.12;100.00;98693.09;4909691;28;101941;-73
2023/05/07 05:10:32;;;;;;;;;8.50;8.50;;;;;7.44;100.00;98753.06;4902779;28;102005;-73
2023/05/07 05:12:59;;;;;;;;;7.50;6.50;;;;;7.43;100.00;98759.50;4905710;28;103991;-73
2023/05/07 05:15:26;;;;;;;;;10.00;8.75;;;;;7.37;100.00;98761.03;4905780;28;102069;-73
2023/05/07 05:17:53;;;;;;;;;10.25;10.00;;;;;7.27;100.00;98759.56;4908681;28;101936;-73
2023/05/07 05:20:20;;;;;;;;;10.25;9.75;;;;;7.29;100.00;98757.53;4903729;28;102765;-73
2023/05/07 05:22:47;;;;;;;;;14.25;11.75;;;;;7.32;100.00;98765.25;4898725;28;104050;-73
2023/05/07 05:25:14;;;;;;;;;9.00;8.00;;;;;7.49;100.00;98769.53;4900028;28;102382;-73
2023/05/07 05:27:41;;;;;;;;;8.00;6.00;;;;;7.48;100.00;98770.53;4909160;28;101966;-73
2023/05/07 05:30:08;;;;;;;;;6.00;5.00;;;;;7.28;100.00;98767.47;4910586;28;102033;-73
2023/05/07 05:32:35;;;;;;;;;7.75;7.25;;;;;7.36;100.00;98780.84;4899875;28;104179;-73
2023/05/07 05:35:03;;;;;;;;;4.00;4.00;;;;;7.36;100.00;98785.41;4905295;28;102509;-73
2023/05/07 05:37:31;;;;;;;;;7.00;6.00;;;;;7.37;100.00;98789.78;4906936;28;102049;-73
2023/05/07 05:39:58;;;;;;;;;4.25;4.00;;;;;7.37;100.00;98790.63;4911670;28;102127;-73
2023/05/07 05:42:24;;;;;;;;;7.00;7.00;;;;;7.31;100.00;98790.47;4893912;28;104073;-73
2023/05/07 05:44:51;;;;;;;;;4.50;4.00;;;;;7.38;100.00;98796.84;4895743;28;102381;-73
2023/05/07 05:47:18;;;;;;;;;4.75;4.00;;;;;7.32;100.00;98802.91;4905142;28;102087;-72
2023/05/07 05:49:45;;;;;;;;;3.00;3.00;;;;;7.33;100.00;98807.28;4907587;28;102946;-72
2023/05/07 05:52:13;;;;;;;;;3.25;3.25;;;;;7.04;100.00;98779.16;4907849;28;104054;-72
2023/05/07 05:54:40;;;;;;;;;2.00;2.00;;;;;7.29;100.00;98803.28;4901840;28;102064;-73
2023/05/07 05:57:07;;;;;;;;;5.25;4.00;;;;;7.23;100.00;98809.34;4906771;28;102408;-72
2023/05/07 05:59:35;;;;;;;;;4.00;4.00;;;;;6.87;100.00;98750.69;4908954;28;102404;-74
2023/05/07 06:02:02;;;;;;;;;8.00;7.50;;;;;7.23;100.00;98809.34;4908050;28;104540;-74
2023/05/07 06:04:29;;;;;;;;;4.25;4.25;;;;;7.28;100.00;98809.66;4901223;28;102369;-73
2023/05/07 06:06:56;;;;;;;;;9.25;9.00;;;;;7.09;100.00;98811.75;4905541;28;102500;-73
2023/05/07 06:09:23;;;;;;;;;8.50;8.50;;;;;6.95;100.00;98817.00;4908410;28;102506;-73
2023/05/07 06:11:50;;;;;;;;;9.50;6.00;;;;;7.05;100.00;98823.03;4908116;28;104098;-73
2023/05/07 06:14:17;;;;;;;;;8.50;7.00;;;;;7.15;100.00;98823.66;4883216;28;102060;-74
2023/05/07 06:16:44;;;;;;;;;5.00;4.00;;;;;7.26;100.00;98825.09;4903463;28;101960;-73
2023/05/07 06:19:11;;;;;;;;;6.00;5.00;;;;;7.31;100.00;98831.66;4905575;28;102127;-73
2023/05/07 06:21:40;;;;;;;;;7.50;7.00;;;;;7.13;100.00;98782.66;4905966;28;103933;-73
2023/05/07 06:24:07;;;;;;;;;3.00;3.00;;;;;7.34;100.00;98825.09;4900232;28;102416;-73
2023/05/07 06:26:34;;;;;;;;;8.75;7.00;;;;;6.97;100.00;98821.19;4899688;28;101907;-73
2023/05/07 06:29:01;;;;;;;;;7.50;6.25;;;;;6.69;100.00;98790.38;4908025;28;107774;-74
2023/05/07 06:31:33;;;;;;;;;9.75;7.75;;;;;7.07;100.00;98837.09;4908398;28;108559;-73
2023/05/07 06:34:02;;;;;;;;;10.75;9.00;;;;;6.97;100.00;98823.91;4904432;28;101981;-73
2023/05/07 06:36:29;;;;;;;;;10.25;9.50;;;;;7.14;100.00;98838.09;4902239;28;101999;-73
2023/05/07 06:38:56;;;;;;;;;11.00;9.75;;;;;6.94;100.00;98829.59;4887704;28;102786;-73
2023/05/07 06:41:23;;;;;;;;;14.50;13.50;;;;;6.77;100.00;98841.41;4904871;28;104000;-73
2023/05/07 06:43:50;;;;;;;;;15.00;13.25;;;;;6.76;100.00;98841.56;4906401;28;102194;-73
2023/05/07 06:46:17;;;;;;;;;10.50;9.50;;;;;6.67;100.00;98854.16;4884044;28;101981;-74
2023/05/07 06:48:44;;;;;;;;;15.25;14.25;;;;;6.47;100.00;98832.22;4903578;28;102433;-74
2023/05/07 06:51:11;;;;;;;;;22.50;16.25;;;;;6.49;100.00;98853.50;4884749;28;104005;-74
2023/05/07 06:53:38;;;;;;;;;20.25;16.00;;;;;6.52;100.00;98853.19;4910266;28;101866;-74
2023/05/07 06:56:05;;;;;;;;;18.25;15.25;;;;;6.48;100.00;98855.38;4896579;28;101870;-73
2023/05/07 06:58:32;;;;;;;;;18.25;13.75;;;;;6.52;100.00;98855.88;4905632;28;102101;-74
2023/05/07 07:00:59;;;;;;;;;15.00;14.00;;;;;6.43;100.00;98840.78;4903633;28;108518;-73
2023/05/07 07:03:26;;;;;;;;;14.50;13.75;;;;;6.58;100.00;98858.72;4907617;28;102009;-74
2023/05/07 07:05:54;;;;;;;;;11.25;10.00;;;;;6.50;100.00;98839.09;4905832;28;102763;-73
2023/05/07 07:08:22;;;;;;;;;13.25;12.50;;;;;6.57;100.00;98838.25;4897796;28;102012;-73
2023/05/07 07:10:49;;;;;;;;;8.25;7.00;;;;;6.73;100.00;98866.94;4893572;28;104162;-73
2023/05/07 07:13:16;;;;;;;;;11.25;9.75;;;;;6.71;100.00;98866.25;4906643;28;103062;-74
2023/05/07 07:15:43;;;;;;;;;8.50;7.75;;;;;6.82;100.00;98863.22;4882465;28;103068;-73
2023/05/07 07:18:10;;;;;;;;;12.50;10.50;;;;;6.76;100.00;98881.88;4897108;28;102039;-73
2023/05/07 07:20:37;;;;;;;;;7.00;6.75;;;;;6.89;100.00;98874.16;4886115;28;104145;-74
2023/05/07 07:23:04;;;;;;;;;13.25;10.25;;;;;6.80;100.00;98867.91;4899635;28;102571;-73
2023/05/07 07:25:32;;;;;;;;;7.00;5.50;;;;;6.84;100.00;98877.34;4906457;28;102002;-74
2023/05/07 07:27:58;;;;;;;;;10.00;9.00;;;;;6.76;99.73;98879.19;4903657;28;102231;-73
2023/05/07 07:30:26;;;;;;;;;8.00;8.00;;;;;6.67;100.00;98840.75;4899208;28;103328;-72
2023/05/07 07:32:53;;;;;;;;;10.25;10.25;;;;;6.88;100.00;98902.88;4904931;28;101985;-74
2023/05/07 07:35:20;;;;;;;;;9.50;9.25;;;;;6.93;100.00;98894.28;4905651;28;102044;-72
2023/05/07 07:37:50;;;;;;;;;10.00;10.00;;;;;6.98;98.64;98892.75;4905748;28;102306;-72
2023/05/07 07:40:17;;;;;;;;;8.00;7.25;;;;;7.22;99.61;98894.53;4897494;28;103988;-72
2023/05/07 07:42:44;;;;;;;;;8.00;5.75;;;;;7.35;98.52;98900.22;4902586;28;103188;-73
2023/05/07 07:45:11;;;;;;;;;8.00;7.00;;;;;7.27;97.19;98876.03;4903149;28;101958;-73
2023/05/07 07:47:41;;;;;;;;;10.00;9.00;;;;;7.28;98.36;98898.41;4908005;28;102104;-73
2023/05/07 07:50:09;;;;;;;;;9.75;9.00;;;;;7.24;97.28;98902.47;4901815;28;103495;-73
2023/05/07 07:52:36;;;;;;;;;7.50;7.50;;;;;7.32;97.60;98911.34;4902415;28;102450;-72
2023/05/07 07:55:04;;;;;;;;;8.25;8.00;;;;;7.16;98.09;98906.81;4911151;28;101901;-73
2023/05/07 07:57:31;;;;;;;;;7.00;5.00;;;;;7.18;96.75;98910.19;4908852;28;102036;-73
2023/05/07 07:59:58;;;;;;;;;11.00;10.00;;;;;7.07;96.26;98918.59;4900803;28;103732;-73
2023/05/07 08:02:25;;;;;;;;;9.00;8.25;;;;;7.12;98.06;98913.56;4901513;28;103063;-73
2023/05/07 08:04:52;;;;;;;;;9.00;8.75;;;;;7.16;96.93;98912.22;4907101;28;101973;-73
2023/05/07 08:07:20;;;;;;;;;11.00;10.00;;;;;6.96;97.54;98918.97;4904927;28;102037;-74
2023/05/07 08:09:47;;;;;;;;;11.75;10.00;;;;;7.14;96.99;98921.47;4900800;28;104014;-73
2023/05/07 08:12:14;;;;;;;;;12.00;11.75;;;;;7.31;95.52;98919.56;4902949;28;102136;-74
2023/05/07 08:14:41;;;;;;;;;10.00;9.50;;;;;7.27;95.86;98912.84;4906261;28;102539;-74
2023/05/07 08:17:10;;;;;;;;;11.75;11.00;;;;;7.18;97.10;98931.72;4911358;28;102057;-73
2023/05/07 08:19:37;;;;;;;;;20.25;19.50;;;;;7.18;96.98;98923.66;4906174;28;109012;-72
2023/05/07 08:22:05;;;;;;;;;15.00;14.00;;;;;7.40;95.99;98908.63;4901045;28;102401;-72
2023/05/07 08:24:32;;;;;;;;;15.50;15.50;;;;;7.35;96.69;98920.91;4901777;28;102346;-73
2023/05/07 08:26:59;;;;;;;;;16.50;15.00;;;;;7.54;95.51;98931.25;4912488;28;102449;-74
2023/05/07 08:29:26;;;;;;;;;15.50;13.00;;;;;7.61;95.73;98938.47;4910756;28;104167;-72
2023/05/07 08:31:53;;;;;;;;;15.50;11.00;;;;;7.57;94.75;98930.91;4900910;28;102404;-74
2023/05/07 08:34:22;;;;;;;;;12.00;11.25;;;;;7.57;94.20;98934.44;4904398;28;101914;-74
2023/05/07 08:36:49;;;;;;;;;10.25;9.25;;;;;7.45;94.69;98938.53;4905751;28;102688;-74
2023/05/07 08:39:16;;;;;;;;;10.50;10.00;;;;;7.63;94.85;98951.75;4909713;28;103974;-74
2023/05/07 08:41:48;;;;;;;;;10.00;9.00;;;;;7.73;93.30;98956.94;4901208;28;102672;-74
2023/05/07 08:44:20;;;;;;;;;10.00;6.00;;;;;7.91;92.16;98954.84;4899638;28;102092;-73
2023/05/07 08:46:53;;;;;;;;;9.50;7.50;;;;;7.79;90.68;98945.47;4908426;28;102263;-73
2023/05/07 08:49:20;;;;;;;;;4.75;4.00;;;;;7.76;92.00;98961.97;4909048;28;104040;-72
2023/05/07 08:51:48;;;;;;;;;11.50;9.50;;;;;7.49;94.49;98965.91;4909375;28;101857;-73
2023/05/07 08:54:19;;;;;;;;;17.50;14.50;;;;;7.11;95.04;98954.09;4899811;28;102467;-74
2023/05/07 08:56:46;;;;;;;;;10.75;10.00;;;;;7.21;95.77;98953.88;4907804;28;102368;-73
2023/05/07 08:59:13;;;;;;;;;17.75;12.50;;;;;7.28;95.38;98965.66;4907074;28;104064;-72
2023/05/07 09:01:40;;;;;;;;;8.25;8.25;;;;;7.54;94.04;98974.31;4893368;28;101989;-74
2023/05/07 09:04:09;;;;;;;;;10.50;10.00;;;;;7.44;93.89;98973.66;4904310;28;102648;-73
2023/05/07 09:06:37;;;;;;;;;7.75;7.50;;;;;7.58;92.50;98981.03;4903376;28;102112;-73
2023/05/07 09:09:05;;;;;;;;;10.00;9.25;;;;;7.36;94.11;98954.84;4888911;28;108500;-73
2023/05/07 09:11:32;;;;;;;;;7.50;7.25;;;;;7.64;92.35;98985.72;4890353;28;102511;-73
2023/05/07 09:14:02;;;;;;;;;14.00;11.75;;;;;7.45;94.19;98986.94;4879542;28;102199;-73
2023/05/07 09:16:30;;;;;;;;;14.50;13.00;;;;;7.35;94.28;98985.44;4884017;28;103871;-71
2023/05/07 09:19:00;;;;;;;;;12.50;11.00;;;;;7.25;96.38;98984.81;4886665;28;104117;-73
2023/05/07 09:21:27;;;;;;;;;11.00;10.50;;;;;7.30;95.68;98977.06;4888885;28;102196;-74
2023/05/07 09:23:55;;;;;;;;;17.00;15.75;;;;;7.23;95.80;98987.66;4883498;28;102142;-73
2023/05/07 09:26:23;;;;;;;;;11.50;11.00;;;;;7.10;96.73;98988.19;4884872;28;102236;-73
2023/05/07 09:28:51;;;;;;;;;15.75;14.25;;;;;7.01;97.12;98983.84;4884462;28;103985;-72
2023/05/07 09:31:18;;;;;;;;;15.75;15.00;;;;;6.96;97.59;99007.69;4889810;28;106022;-72
2023/05/07 09:33:47;;;;;;;;;10.25;8.50;;;;;6.94;97.09;99011.53;4865280;28;102032;-73
2023/05/07 09:36:15;;;;;;;;;9.00;7.00;;;;;7.16;97.36;99009.00;4885749;28;102207;-74
2023/05/07 09:38:42;;;;;;;;;14.75;11.50;;;;;6.97;97.57;98982.50;4883227;28;104131;-75
2023/05/07 09:41:13;;;;;;;;;10.50;10.00;;;;;7.17;95.86;99010.69;4891533;28;104017;-74
2023/05/07 09:43:40;;;;;;;;;10.75;9.75;;;;;7.20;95.98;99004.16;4885431;28;101973;-74
2023/05/07 09:46:15;;;;;;;;;13.75;11.25;;;;;7.22;96.43;99006.66;4883848;28;102003;-74
2023/05/07 09:48:44;;;;;;;;;13.25;12.00;;;;;7.44;96.27;99005.94;4867040;28;108509;-74
2023/05/07 09:51:38;;;;;;;;;13.50;11.00;;;;;7.45;93.55;99011.16;4886655;28;102193;-74
2023/05/07 09:54:06;;;;;;;;;17.00;15.50;;;;;7.29;94.49;99013.06;4886869;28;101987;-73
2023/05/07 09:56:37;;;;;;;;;12.25;10.00;;;;;7.21;95.83;99019.25;4879773;28;102051;-72
2023/05/07 09:59:06;;;;;;;;;14.25;12.25;;;;;7.40;95.29;99015.38;4884611;28;103981;-73
2023/05/07 10:01:36;;;;;;;;;16.00;13.25;;;;;7.43;94.38;99020.44;4889701;28;102848;-73
2023/05/07 10:04:04;;;;;;;;;11.75;10.75;;;;;7.62;92.60;99030.78;4874642;28;101978;-72
2023/05/07 10:06:31;;;;;;;;;10.00;9.00;;;;;7.77;91.72;99029.09;4882381;28;102440;-73
2023/05/07 10:08:59;;;;;;;;;9.50;8.00;;;;;7.62;92.79;99015.50;4881807;28;104609;-73
2023/05/07 10:11:26;;;;;;;;;8.25;8.00;;;;;7.73;92.65;99032.28;4883986;28;102894;-73
2023/05/07 10:13:53;;;;;;;;;11.00;10.00;;;;;7.76;92.96;99038.16;4886978;28;102056;-72
2023/05/07 10:16:21;;;;;;;;;11.00;8.50;;;;;7.97;93.89;99046.50;4868510;28;102209;-72
2023/05/07 10:18:49;;;;;;;;;10.50;7.50;;;;;8.03;93.83;99042.28;4877879;28;103025;-73
2023/05/07 10:21:21;;;;;;;;;7.75;6.25;;;;;8.07;92.29;99044.47;4886992;28;102471;-73
2023/05/07 10:23:57;;;;;;;;;8.00;7.75;;;;;7.93;93.53;99055.09;4884157;28;102114;-73
2023/05/07 10:26:27;;;;;;;;;8.75;7.50;;;;;7.71;91.79;99018.16;4887080;28;102202;-72
2023/05/07 10:29:03;;;;;;;;;6.00;6.00;;;;;7.87;93.13;99048.59;4882634;28;104603;-73
2023/05/07 10:31:33;;;;;;;;;9.00;9.00;;;;;7.70;91.56;99011.13;4886600;28;102358;-73
2023/05/07 10:34:07;;;;;;;;;6.00;5.00;;;;;8.02;91.71;99043.28;4885444;28;102817;-73
2023/05/07 10:36:35;;;;;;;;;12.00;11.00;;;;;7.79;91.46;99042.38;4888302;28;102097;-73
2023/05/07 10:39:06;;;;;;;;;14.00;12.00;;;;;7.84;92.17;99067.75;4878151;28;103906;-74
2023/05/07 10:41:33;;;;;;;;;13.75;12.00;;;;;7.46;91.13;99020.94;4880922;28;102109;-73
2023/05/07 10:44:01;;;;;;;;;15.25;13.00;;;;;7.65;91.73;99061.94;4887279;28;102476;-73
2023/05/07 10:46:29;;;;;;;;;9.75;9.00;;;;;7.57;92.77;99062.75;4888980;28;101894;-72
2023/05/07 10:49:08;;;;;;;;;8.50;7.75;;;;;7.54;92.70;99072.03;4885122;28;104075;-74
2023/05/07 10:51:35;;;;;;;;;8.50;5.00;;;;;7.63;91.84;99059.41;4883589;28;101975;-72
2023/05/07 10:54:12;;;;;;;;;5.00;5.00;;;;;7.43;92.59;99068.84;4869180;28;102105;-72
2023/05/07 10:56:42;;;;;;;;;5.00;5.00;;;;;7.49;93.88;99078.91;4888063;28;102448;-73
2023/05/07 10:59:27;;;;;;;;;5.00;4.75;;;;;7.65;92.89;99057.38;4880892;28;108693;-73
2023/05/07 11:01:57;;;;;;;;;3.00;3.00;;;;;7.82;92.47;99077.88;4883068;28;102554;-74
2023/05/07 11:04:29;;;;;;;;;8.25;7.25;;;;;7.80;91.67;99070.97;4885237;28;105278;-73
2023/05/07 11:07:08;;;;;;;;;4.75;4.75;;;;;7.79;91.07;99074.69;4887911;28;103218;-73
2023/05/07 11:09:51;;;;;;;;;8.00;5.00;;;;;7.66;92.22;99068.97;4878356;28;104253;-73
2023/05/07 11:12:38;;;;;;;;;7.00;7.00;;;;;7.54;92.40;99077.41;4880954;28;101960;-74
2023/05/07 11:15:09;;;;;;;;;7.00;5.00;;;;;7.58;92.03;99075.22;4885584;28;103566;-74
2023/05/07 11:17:56;;;;;;;;;6.50;4.00;;;;;7.84;92.65;99077.69;4890320;28;102113;-73
2023/05/07 11:20:53;;;;;;;;;6.00;4.75;;;;;7.86;91.42;99079.19;4878283;28;108715;-74
2023/05/07 11:23:35;;;;;;;;;2.75;2.75;;;;;8.00;91.24;99088.41;4880820;28;102832;-74
2023/05/07 11:26:05;;;;;;;;;7.00;6.25;;;;;7.97;91.15;99088.78;4867584;28;102267;-73
2023/05/07 11:28:38;;;;;;;;;8.00;8.00;;;;;7.71;91.71;99088.13;4892400;28;102116;-74